< < Back
Terminal Aerodrome Forecast


Current Version              Previous Versions:   1  2  3  4  5  6  7  8  9  

Terminal Aerodrome Forecast

440
FTUS42 KGSP 232320
TAFCLT
TAF
KCLT 232320Z 2400/2424 33003KT P6SM SKC
     FM241600 24005KT P6SM SCT150=



Latest METAR

828
SAUS70 KWBC 241000 RRA
MTRCLT
METAR KCLT 240952Z 00000KT 10SM BKN220 06/04 A3005 RMK AO2 SLP172
T00610044 $


USA.gov is the U.S. government's official web portal to all federal, state and local government web resources and services.